Happy Valentine's Day! 

Flight Track Log - Related Links

Times and Time Zones

All times are in EDT time to prevent confusion due to time zone crossing. See the AWE1092 flight status page for this flight to view local times or setup timezone preferences in your user account.


Time Position Orientation Groundspeed Altitude Reporting Facility
EDT Latitude Longitude Course Direction KTS MPH feet Rate Location/Type
Thu 09:42:59 AM 39.8667 -75.2667 185° South 180 207 700  Level Philadelphia TRACON
Thu 09:44:35 AM 39.7833 -75.3500 218° Southwest 249 287 4,000 2,539 Climbing Philadelphia TRACON
Thu 09:45:00 AM 39.6046 -75.3000 180° South  Level FlightAware Approximate
Thu 09:46:00 AM 39.5132 -75.3140 189° South  Level FlightAware Approximate
Thu 09:47:00 AM 39.4229 -75.3345 185° South  Level FlightAware Approximate
Thu 09:47:00 AM 39.6092 -75.3894 190° South 293 337 10,900  Level Washington Center
Thu 09:48:00 AM 39.3311 -75.3447 185° South  Level FlightAware Approximate
Thu 09:48:01 AM 39.5072 -75.3844 178° South 336 387 13,500  Level Washington Center
Thu 09:48:59 AM 39.4008 -75.3847 180° South 366 421 15,900 1,261 Climbing Washington Center
Thu 09:50:00 AM 39.2925 -75.3825 179° South 386 444 16,000 793 Climbing Washington Center
Thu 09:51:00 AM 39.1842 -75.3828 180° South 392 451 17,500 1,750 Climbing Washington Center
Thu 09:52:00 AM 39.0736 -75.3992 187° South 392 451 19,500 1,240 Climbing Washington Center
Thu 09:53:01 AM 38.9672 -75.4208 189° South 397 457 20,000 744 Climbing Washington Center
Thu 09:54:01 AM 38.8506 -75.4344 185° South 408 470 21,000 1,678 Climbing Washington Center
Thu 09:54:59 AM 38.7361 -75.4506 186° South 413 475 23,300 2,085 Climbing Washington Center
Thu 09:55:59 AM 38.6214 -75.4775 190° South 418 481 25,100 1,350 Climbing Washington Center
Thu 09:56:59 AM 38.4983 -75.4856 183° South 430 495 26,000 443 Climbing Washington Center
Thu 09:58:01 AM 38.3775 -75.5069 188° South 436 502 26,000  Level Washington Center
Thu 09:59:01 AM 38.2586 -75.5864 208° Southwest 445 512 26,000  Level Washington Center
Thu 10:00:01 AM 38.1628 -75.6789 217° Southwest 439 505 26,000  Level Washington Center
Thu 10:00:59 AM 38.0625 -75.7658 214° Southwest 439 505 26,000  Level Washington Center
Thu 10:02:00 AM 37.9644 -75.8603 217° Southwest 444 511 26,000  Level Washington Center
Thu 10:03:00 AM 37.8639 -75.9522 216° Southwest 454 522 26,000  Level Washington Center
Thu 10:04:01 AM 37.7656 -76.0461 217° Southwest 454 522 26,000  Level Washington Center
Thu 10:05:00 AM 37.6672 -76.1350 216° Southwest 454 522 26,000 -101 Level Washington Center
Thu 10:06:00 AM 37.5647 -76.2206 213° Southwest 449 517 25,800 -595 Descending Washington Center
Thu 10:07:01 AM 37.4661 -76.3114 216° Southwest 449 517 24,800 -908 Descending Washington Center
Thu 10:07:59 AM 37.3675 -76.3967 215° Southwest 449 517 24,000 -403 Descending Washington Center
Thu 10:09:00 AM 37.2708 -76.4869 217° Southwest 444 511 24,000 -443 Level Washington Center
Thu 10:10:01 AM 37.1928 -76.5983 229° Southwest 437 503 23,100 -843 Descending Washington Center
Thu 10:11:01 AM 37.1208 -76.7144 232° Southwest 430 495 22,300 -908 Descending Washington Center
Thu 10:12:00 AM 37.0489 -76.8253 231° Southwest 425 489 21,300 -1,008 Descending Washington Center
Thu 10:13:00 AM 36.9789 -76.9361 232° Southwest 419 482 20,300 -645 Descending Washington Center
Thu 10:14:01 AM 36.9067 -77.0439 230° Southwest 414 476 20,000 -151 Descending Washington Center
Thu 10:14:59 AM 36.8364 -77.1517 231° Southwest 414 476 20,000  Level Washington Center
Thu 10:16:00 AM 36.7661 -77.2592 231° Southwest 414 476 20,000 -298 Level Washington Center
Thu 10:17:00 AM 36.6958 -77.3714 232° Southwest 414 476 19,400 -793 Descending Washington Center
Thu 10:18:01 AM 36.6275 -77.4733 230° Southwest 408 470 18,400 -1,008 Descending Washington Center
Thu 10:18:59 AM 36.5569 -77.5803 231° Southwest 408 470 17,400 -1,008 Descending Washington Center
Thu 10:20:00 AM 36.4883 -77.6819 230° Southwest 403 464 16,400 -793 Descending Washington Center
Thu 10:21:00 AM 36.4219 -77.7833 231° Southwest 397 457 15,800 -298 Descending Washington Center
Thu 10:22:01 AM 36.3594 -77.8875 233° Southwest 392 451 15,800 -843 Level Washington Center
Thu 10:23:01 AM 36.2886 -77.9911 230° Southwest 392 451 14,100 -1,881 Descending Washington Center
Thu 10:23:59 AM 36.2261 -78.0869 231° Southwest 387 445 12,100 -1,932 Descending Washington Center
Thu 10:24:59 AM 36.1656 -78.1803 231° Southwest 366 421 10,300 -1,537 Descending Washington Center
Thu 10:26:00 AM 36.1242 -78.2639 239° Southwest 334 384 9,000 -1,537 Descending Washington Center
Thu 10:27:00 AM 36.1114 -78.3689 261° West 297 342 7,200 -1,289 Descending Washington Center
Thu 10:28:01 AM 36.1133 -78.4614 272° West 275 316 6,400 -744 Descending Washington Center
Thu 10:29:01 AM 36.1011 -78.5303 258° West 247 284 5,700 -864 Descending Washington Center
Thu 10:29:59 AM 36.0583 -78.5775 222° Southwest 210 242 4,700 -989 Descending Washington Center
Thu 10:30:32 AM 36.0347 -78.6025 221° Southwest 198 228 4,200 -512 Descending Washington Center
Thu 10:31:21 AM 36.0089 -78.6372 227° Southwest 174 200 4,000 -545 Descending Washington Center
Thu 10:32:00 AM 35.9917 -78.6597 227° Southwest 191 220 3,400 -923 Descending Washington Center

Login

Don't have an account? Register now (free) for customized features, flight alerts, and more!